createdAt,value
2023-04-02T00:00:34.959Z,96147.00
2023-04-02T00:05:52.013Z,96158.00
2023-04-02T00:11:00.351Z,96163.00
2023-04-02T00:16:05.981Z,96166.00
2023-04-02T00:21:21.461Z,96173.00
2023-04-02T00:26:40.476Z,96173.00
2023-04-02T00:31:47.062Z,96183.00
2023-04-02T00:36:50.269Z,96191.00
2023-04-02T00:42:04.250Z,96192.00
2023-04-02T00:47:26.123Z,96192.00
2023-04-02T00:52:30.281Z,96194.00
2023-04-02T00:57:32.823Z,96195.00
2023-04-02T01:02:39.940Z,96187.00
2023-04-02T01:08:12.248Z,96203.00
2023-04-02T01:13:25.584Z,96204.00
2023-04-02T01:18:37.157Z,96209.00
2023-04-02T01:24:25.646Z,96211.00
2023-04-02T01:29:37.675Z,96213.00
2023-04-02T01:34:39.223Z,96215.00
2023-04-02T01:40:51.067Z,96234.00
2023-04-02T01:45:51.895Z,96230.00
2023-04-02T01:50:56.104Z,96245.00
2023-04-02T01:56:01.085Z,96234.00
2023-04-02T02:01:15.888Z,96241.00
2023-04-02T02:06:19.160Z,96252.00
2023-04-02T02:11:23.514Z,96256.00
2023-04-02T02:16:27.452Z,96259.00
2023-04-02T02:21:48.009Z,96266.00
2023-04-02T02:26:56.877Z,96274.00
2023-04-02T02:31:59.712Z,96279.00
2023-04-02T02:38:47.835Z,96283.00
2023-04-02T02:44:46.866Z,96287.00
2023-04-02T02:49:58.936Z,96297.00
2023-04-02T02:55:21.196Z,96298.00
2023-04-02T03:00:31.262Z,96297.00
2023-04-02T03:05:34.787Z,96300.00
2023-04-02T03:10:53.406Z,96315.00
2023-04-02T03:16:17.740Z,96316.00
2023-04-02T03:22:02.349Z,96318.00
2023-04-02T03:27:13.034Z,96328.00
2023-04-02T03:32:26.266Z,96340.00
2023-04-02T03:37:35.815Z,96348.00
2023-04-02T03:42:43.723Z,96352.00
2023-04-02T03:48:36.181Z,96366.00
2023-04-02T03:53:38.355Z,96373.00
2023-04-02T03:58:48.749Z,96378.00
2023-04-02T04:03:53.584Z,96381.00
2023-04-02T04:09:07.049Z,96389.00
2023-04-02T04:14:14.563Z,96392.00
2023-04-02T04:19:37.447Z,96413.00
2023-04-02T04:24:38.561Z,96417.00
2023-04-02T04:30:35.435Z,96418.00
2023-04-02T04:35:39.538Z,96431.00
2023-04-02T04:40:51.604Z,96439.00
2023-04-02T04:46:02.991Z,96441.00
2023-04-02T04:51:33.015Z,96451.00
2023-04-02T04:56:36.521Z,96459.00
2023-04-02T05:01:52.264Z,96462.00
2023-04-02T05:07:42.092Z,96474.00
2023-04-02T05:12:51.062Z,96486.00
2023-04-02T05:18:34.039Z,96490.00
2023-04-02T05:23:51.136Z,96501.00
2023-04-02T05:29:41.452Z,96507.00
2023-04-02T05:34:47.797Z,96517.00
2023-04-02T05:39:57.445Z,96519.00
2023-04-02T05:45:30.638Z,96527.00
2023-04-02T05:50:36.606Z,96536.00
2023-04-02T05:56:06.906Z,96541.00
2023-04-02T06:02:21.584Z,96553.00
2023-04-02T06:07:28.057Z,96564.00
2023-04-02T06:12:43.908Z,96566.00
2023-04-02T06:17:50.633Z,96579.00
2023-04-02T06:23:19.633Z,96591.00
2023-04-02T06:30:02.590Z,96592.00
2023-04-02T06:35:05.559Z,96604.00
2023-04-02T06:40:41.013Z,96608.00
2023-04-02T06:46:05.365Z,96617.00
2023-04-02T06:51:24.779Z,96636.00
2023-04-02T06:57:26.287Z,96650.00
2023-04-02T07:02:36.439Z,96660.00
2023-04-02T07:07:39.416Z,96676.00
2023-04-02T07:12:42.560Z,96679.00
2023-04-02T07:17:43.569Z,96685.00
2023-04-02T07:22:44.826Z,96699.00
2023-04-02T07:27:46.088Z,96707.00
2023-04-02T07:32:47.231Z,96720.00
2023-04-02T07:37:48.076Z,96735.00
2023-04-02T07:42:49.735Z,96736.00
2023-04-02T07:47:50.580Z,96749.00
2023-04-02T07:52:51.716Z,96764.00
2023-04-02T07:57:57.673Z,96763.00
2023-04-02T08:02:58.518Z,96764.00
2023-04-02T08:07:59.816Z,96766.00
2023-04-02T08:13:00.890Z,96782.00
2023-04-02T08:18:01.742Z,96790.00
2023-04-02T08:23:03.766Z,96791.00
2023-04-02T08:28:04.746Z,96807.00
2023-04-02T08:33:05.871Z,96816.00
2023-04-02T08:38:06.992Z,96833.00
2023-04-02T08:43:28.125Z,96844.00
2023-04-02T08:48:31.898Z,96851.00
2023-04-02T08:53:37.053Z,96861.00
2023-04-02T08:58:49.810Z,96872.00
2023-04-02T09:03:54.106Z,96884.00
2023-04-02T09:08:57.584Z,96899.00
2023-04-02T09:14:01.441Z,96907.00
2023-04-02T09:19:14.101Z,96916.00
2023-04-02T09:24:15.213Z,96925.00
2023-04-02T09:29:39.992Z,96934.00
2023-04-02T09:34:40.969Z,96945.00
2023-04-02T09:39:42.278Z,96957.00
2023-04-02T09:44:43.045Z,96966.00
2023-04-02T09:49:43.839Z,96979.00
2023-04-02T09:54:45.953Z,96974.00
2023-04-02T09:59:46.700Z,96989.00
2023-04-02T10:04:48.920Z,97003.00
2023-04-02T10:09:58.088Z,97012.00
2023-04-02T10:15:00.816Z,97027.00
2023-04-02T10:20:48.610Z,97035.00
2023-04-02T10:26:19.508Z,97044.00
2023-04-02T10:31:27.827Z,97055.00
2023-04-02T10:36:50.749Z,97064.00
2023-04-02T10:42:00.232Z,97077.00
2023-04-02T10:50:38.531Z,97089.00
2023-04-02T10:55:44.694Z,97099.00
2023-04-02T11:00:46.756Z,97100.00
2023-04-02T11:05:50.046Z,97112.00
2023-04-02T11:11:03.305Z,97122.00
2023-04-02T11:16:05.948Z,97135.00
2023-04-02T11:21:59.637Z,97148.00
2023-04-02T11:27:35.996Z,97157.00
2023-04-02T11:32:42.095Z,97176.00
2023-04-02T11:37:45.030Z,97174.00
2023-04-02T11:42:48.955Z,97193.00
2023-04-02T11:48:50.584Z,97194.00
2023-04-02T11:53:53.951Z,97200.00
2023-04-02T11:59:40.160Z,97212.00
2023-04-02T12:05:18.650Z,97218.00
2023-04-02T12:10:23.179Z,97223.00
2023-04-02T12:15:44.128Z,97233.00
2023-04-02T12:20:47.280Z,97240.00
2023-04-02T12:25:55.617Z,97250.00
2023-04-02T12:31:16.908Z,97262.00
2023-04-02T12:36:23.029Z,97270.00
2023-04-02T12:41:36.068Z,97273.00
2023-04-02T12:46:39.314Z,97280.00
2023-04-02T12:51:40.585Z,97281.00
2023-04-02T12:56:41.872Z,97289.00
2023-04-02T13:01:55.885Z,97296.00
2023-04-02T13:06:57.704Z,97301.00
2023-04-02T13:11:59.025Z,97312.00
2023-04-02T13:16:59.881Z,97310.00
2023-04-02T13:22:03.062Z,97318.00
2023-04-02T13:27:03.881Z,97331.00
2023-04-02T13:32:11.426Z,97328.00
2023-04-02T13:37:12.434Z,97343.00
2023-04-02T13:42:13.294Z,97338.00
2023-04-02T13:47:14.658Z,97348.00
2023-04-02T13:52:16.341Z,97354.00
2023-04-02T13:57:17.773Z,97355.00
2023-04-02T14:02:23.644Z,97367.00
2023-04-02T14:07:54.570Z,97372.00
2023-04-02T14:21:06.256Z,97371.00
2023-04-02T14:28:04.649Z,97390.00
2023-04-02T14:33:36.828Z,97407.00
2023-04-02T14:40:29.896Z,97417.00
2023-04-02T14:46:12.962Z,97420.00
2023-04-02T14:51:40.048Z,97428.00
2023-04-02T14:56:49.965Z,97440.00
2023-04-02T15:01:57.922Z,97435.00
2023-04-02T15:07:05.675Z,97450.00
2023-04-02T15:12:25.061Z,97448.00
2023-04-02T15:17:25.880Z,97462.00
2023-04-02T15:26:20.889Z,97459.00
2023-04-02T15:31:25.492Z,97474.00
2023-04-02T15:36:45.670Z,97473.00
2023-04-02T15:42:17.802Z,97476.00
2023-04-02T15:49:00.869Z,97482.00
2023-04-02T15:55:54.663Z,97500.00
2023-04-02T16:01:17.699Z,97507.00
2023-04-02T16:06:38.865Z,97508.00
2023-04-02T16:11:39.932Z,97525.00
2023-04-02T16:16:45.892Z,97528.00
2023-04-02T16:21:53.671Z,97541.00
2023-04-02T16:29:58.442Z,97546.00
2023-04-02T16:35:43.098Z,97556.00
2023-04-02T16:41:08.225Z,97566.00
2023-04-02T16:49:11.461Z,97574.00
2023-04-02T16:54:26.425Z,97577.00
2023-04-02T17:01:33.296Z,97591.00
2023-04-02T17:06:41.749Z,97607.00
2023-04-02T17:11:49.052Z,97610.00
2023-04-02T17:16:54.130Z,97611.00
2023-04-02T17:22:01.627Z,97626.00
2023-04-02T17:28:02.650Z,97634.00
2023-04-02T17:33:14.546Z,97653.00
2023-04-02T17:39:56.595Z,97666.00
2023-04-02T17:46:51.055Z,97667.00
2023-04-02T17:54:56.984Z,97691.00
2023-04-02T18:01:49.448Z,97701.00
2023-04-02T18:07:31.016Z,97716.00
2023-04-02T18:14:25.340Z,97724.00
2023-04-02T18:23:17.164Z,97741.00
2023-04-02T18:29:23.583Z,97761.00
2023-04-02T18:34:52.360Z,97775.00
2023-04-02T18:42:42.386Z,97792.00
2023-04-02T18:48:08.739Z,97806.00
2023-04-02T18:53:18.381Z,97814.00
2023-04-02T18:59:48.025Z,97818.00
2023-04-02T19:05:03.729Z,97839.00
2023-04-02T19:10:22.503Z,97849.00
2023-04-02T19:17:04.343Z,97857.00
2023-04-02T19:23:25.763Z,97864.00
2023-04-02T19:29:43.019Z,97866.00
2023-04-02T19:37:57.796Z,97879.00
2023-04-02T19:42:58.748Z,97890.00
2023-04-02T19:48:05.848Z,97888.00
2023-04-02T19:53:07.360Z,97900.00
2023-04-02T19:58:22.779Z,97911.00
2023-04-02T20:03:23.899Z,97912.00
2023-04-02T20:08:28.170Z,97918.00
2023-04-02T20:13:29.084Z,97923.00
2023-04-02T20:18:31.247Z,97928.00
2023-04-02T20:23:33.370Z,97929.00
2023-04-02T20:28:34.496Z,97945.00
2023-04-02T20:33:35.957Z,97944.00
2023-04-02T20:38:41.133Z,97951.00
2023-04-02T20:43:42.025Z,97949.00
2023-04-02T20:48:43.858Z,97961.00
2023-04-02T20:53:45.246Z,97965.00
2023-04-02T20:58:46.076Z,97958.00
2023-04-02T21:03:47.636Z,97963.00
2023-04-02T21:08:49.265Z,97968.00
2023-04-02T21:13:50.564Z,97978.00
2023-04-02T21:18:52.243Z,97978.00
2023-04-02T21:23:58.949Z,97984.00
2023-04-02T21:29:03.303Z,97979.00
2023-04-02T21:34:05.741Z,97978.00
2023-04-02T21:39:10.362Z,97977.00
2023-04-02T21:44:16.918Z,97977.00
2023-04-02T21:49:21.390Z,97981.00
2023-04-02T21:54:22.341Z,97986.00
2023-04-02T21:59:23.284Z,97995.00
2023-04-02T22:04:24.953Z,98001.00
2023-04-02T22:09:26.332Z,98000.00
2023-04-02T22:14:27.797Z,97999.00
2023-04-02T22:19:28.597Z,97997.00
2023-04-02T22:24:29.563Z,97992.00
2023-04-02T22:29:30.302Z,97989.00
2023-04-02T22:34:31.130Z,97990.00
2023-04-02T22:39:31.852Z,97989.00
2023-04-02T22:44:32.762Z,97994.00
2023-04-02T22:49:33.544Z,97991.00
2023-04-02T22:54:34.429Z,97997.00
2023-04-02T22:59:35.173Z,97999.00
2023-04-02T23:04:36.003Z,98004.00
2023-04-02T23:09:36.749Z,98001.00
2023-04-02T23:14:37.677Z,98001.00
2023-04-02T23:19:38.632Z,98002.00
2023-04-02T23:24:39.600Z,98002.00
2023-04-02T23:29:40.314Z,98007.00
2023-04-02T23:34:42.050Z,98006.00
2023-04-02T23:39:43.249Z,98018.00
2023-04-02T23:44:44.414Z,98010.00
2023-04-02T23:49:47.013Z,98008.00
2023-04-02T23:54:47.936Z,98014.00
2023-04-02T23:59:48.715Z,98013.00
